createdAt,value
2017-12-16T00:02:04.497Z,26.50
2017-12-16T00:04:32.241Z,26.90
2017-12-16T00:06:59.928Z,28.33
2017-12-16T00:09:27.591Z,26.90
2017-12-16T00:11:55.205Z,24.67
2017-12-16T00:14:22.829Z,23.23
2017-12-16T00:16:50.537Z,22.13
2017-12-16T00:19:18.255Z,26.70
2017-12-16T00:21:45.924Z,26.37
2017-12-16T00:24:13.552Z,23.90
2017-12-16T00:26:41.241Z,27.60
2017-12-16T00:29:08.923Z,28.20
2017-12-16T00:31:36.706Z,25.03
2017-12-16T00:34:04.330Z,28.53
2017-12-16T00:36:32.146Z,25.30
2017-12-16T00:38:59.764Z,25.93
2017-12-16T00:41:27.491Z,29.60
2017-12-16T00:43:55.122Z,25.07
2017-12-16T00:46:22.852Z,26.77
2017-12-16T00:48:50.512Z,29.60
2017-12-16T00:51:18.273Z,25.97
2017-12-16T00:53:45.901Z,22.67
2017-12-16T00:56:13.704Z,30.23
2017-12-16T00:58:41.330Z,23.80
2017-12-16T01:01:09.106Z,22.07
2017-12-16T01:03:36.783Z,24.50
2017-12-16T01:06:04.476Z,25.27
2017-12-16T01:08:32.101Z,22.13
2017-12-16T01:10:59.830Z,24.77
2017-12-16T01:13:27.550Z,24.80
2017-12-16T01:15:55.224Z,25.67
2017-12-16T01:18:22.878Z,22.50
2017-12-16T01:20:50.570Z,22.00
2017-12-16T01:23:18.212Z,27.83
2017-12-16T01:25:45.893Z,23.07
2017-12-16T01:28:13.626Z,23.07
2017-12-16T01:30:41.305Z,21.60
2017-12-16T01:33:08.946Z,24.27
2017-12-16T01:35:48.493Z,22.73
2017-12-16T01:38:27.884Z,24.87
2017-12-16T01:40:55.648Z,26.90
2017-12-16T01:43:23.347Z,22.97
2017-12-16T01:45:51.089Z,22.67
2017-12-16T01:48:18.764Z,23.40
2017-12-16T01:50:46.448Z,22.83
2017-12-16T01:53:14.072Z,23.73
2017-12-16T01:55:41.764Z,21.77
2017-12-16T01:58:09.397Z,23.80
2017-12-16T02:00:37.185Z,26.23
2017-12-16T02:03:04.800Z,24.10
2017-12-16T02:05:32.513Z,18.77
2017-12-16T02:08:00.161Z,26.30
2017-12-16T02:10:27.869Z,23.50
2017-12-16T02:12:55.557Z,19.37
2017-12-16T02:15:23.244Z,21.27
2017-12-16T02:17:51.020Z,22.30
2017-12-16T02:20:18.724Z,24.30
2017-12-16T02:22:46.395Z,23.70
2017-12-16T02:25:14.014Z,22.00
2017-12-16T02:27:41.752Z,23.03
2017-12-16T02:30:09.379Z,21.47
2017-12-16T02:32:37.060Z,23.17
2017-12-16T02:35:04.757Z,25.90
2017-12-16T02:37:32.494Z,23.63
2017-12-16T02:40:00.211Z,24.03
2017-12-16T02:42:27.948Z,22.20
2017-12-16T02:44:55.646Z,26.10
2017-12-16T02:47:23.384Z,22.17
2017-12-16T02:49:51.088Z,24.87
2017-12-16T02:52:18.816Z,25.83
2017-12-16T02:54:46.539Z,22.73
2017-12-16T02:57:14.229Z,29.30
2017-12-16T02:59:41.934Z,24.57
2017-12-16T03:02:09.634Z,27.90
2017-12-16T03:04:37.341Z,20.47
2017-12-16T03:07:05.024Z,21.77
2017-12-16T03:09:32.703Z,23.93
2017-12-16T03:12:00.463Z,21.60
2017-12-16T03:14:28.090Z,24.50
2017-12-16T03:16:55.841Z,23.00
2017-12-16T03:19:23.531Z,23.90
2017-12-16T03:21:51.242Z,21.63
2017-12-16T03:24:18.942Z,23.53
2017-12-16T03:26:46.618Z,25.23
2017-12-16T03:29:14.296Z,22.30
2017-12-16T03:31:42.053Z,19.17
2017-12-16T03:34:09.674Z,21.57
2017-12-16T03:36:37.418Z,22.80
2017-12-16T03:39:05.103Z,22.30
2017-12-16T03:41:32.750Z,21.50
2017-12-16T03:44:00.484Z,21.53
2017-12-16T03:46:28.115Z,23.80
2017-12-16T03:48:55.908Z,22.97
2017-12-16T03:51:23.604Z,26.50
2017-12-16T03:53:51.347Z,23.23
2017-12-16T03:56:18.979Z,22.40
2017-12-16T03:58:46.761Z,25.20
2017-12-16T04:01:14.474Z,30.30
2017-12-16T04:03:42.214Z,23.90
2017-12-16T04:06:09.920Z,28.90
2017-12-16T04:08:37.649Z,25.33
2017-12-16T04:11:05.288Z,28.67
2017-12-16T04:13:32.969Z,28.90
2017-12-16T04:16:00.669Z,31.10
2017-12-16T04:18:28.364Z,29.00
2017-12-16T04:20:56.072Z,26.53
2017-12-16T04:23:23.800Z,29.97
2017-12-16T04:25:51.524Z,33.60
2017-12-16T04:28:19.205Z,30.97
2017-12-16T04:30:46.901Z,28.53
2017-12-16T04:33:14.590Z,27.70
2017-12-16T04:35:42.292Z,29.63
2017-12-16T04:38:10.039Z,34.63
2017-12-16T04:40:37.729Z,34.17
2017-12-16T04:43:05.412Z,35.60
2017-12-16T04:45:33.084Z,27.90
2017-12-16T04:48:00.823Z,28.20
2017-12-16T04:50:28.465Z,33.20
2017-12-16T04:52:56.205Z,30.40
2017-12-16T04:55:23.905Z,33.60
2017-12-16T04:57:51.744Z,35.93
2017-12-16T05:00:19.443Z,34.43
2017-12-16T05:02:47.140Z,37.60
2017-12-16T05:05:14.789Z,34.47
2017-12-16T05:07:42.490Z,37.13
2017-12-16T05:10:10.188Z,39.70
2017-12-16T05:12:37.916Z,33.43
2017-12-16T05:15:05.603Z,38.47
2017-12-16T05:17:33.377Z,38.60
2017-12-16T05:20:01.092Z,38.23
2017-12-16T05:22:28.805Z,45.83
2017-12-16T05:24:56.546Z,38.53
2017-12-16T05:27:24.229Z,41.90
2017-12-16T05:29:51.994Z,40.07
2017-12-16T05:32:19.624Z,39.87
2017-12-16T05:34:47.364Z,38.40
2017-12-16T05:37:14.981Z,40.67
2017-12-16T05:39:42.674Z,36.47
2017-12-16T05:42:10.313Z,38.87
2017-12-16T05:44:38.048Z,35.10
2017-12-16T05:47:05.773Z,37.03
2017-12-16T05:49:33.541Z,39.03
2017-12-16T05:52:01.246Z,36.37
2017-12-16T05:54:28.934Z,31.57
2017-12-16T05:56:56.681Z,32.70
2017-12-16T05:59:24.434Z,28.77
2017-12-16T06:01:52.056Z,29.77
2017-12-16T06:04:19.829Z,31.33
2017-12-16T06:06:47.540Z,34.60
2017-12-16T06:09:15.222Z,29.17
2017-12-16T06:11:42.862Z,29.97
2017-12-16T06:14:10.619Z,34.10
2017-12-16T06:16:38.254Z,31.13
2017-12-16T06:19:05.999Z,34.10
2017-12-16T06:21:33.693Z,20.70
2017-12-16T06:24:01.376Z,32.07
2017-12-16T06:26:29.029Z,24.30
2017-12-16T06:28:56.785Z,27.87
2017-12-16T06:31:24.514Z,29.47
2017-12-16T06:33:52.212Z,28.40
2017-12-16T06:36:19.836Z,26.90
2017-12-16T06:38:47.535Z,29.80
2017-12-16T06:41:15.253Z,23.50
2017-12-16T06:43:42.997Z,29.80
2017-12-16T06:46:10.696Z,27.27
2017-12-16T06:48:38.445Z,25.53
2017-12-16T06:51:06.089Z,29.60
2017-12-16T06:53:33.828Z,26.83
2017-12-16T06:56:01.469Z,30.13
2017-12-16T06:58:29.177Z,28.47
2017-12-16T07:00:56.881Z,26.63
2017-12-16T07:03:24.608Z,30.23
2017-12-16T07:05:52.288Z,28.20
2017-12-16T07:08:19.971Z,29.40
2017-12-16T07:10:47.720Z,31.23
2017-12-16T07:13:15.434Z,26.83
2017-12-16T07:15:43.121Z,30.23
2017-12-16T07:18:10.819Z,28.70
2017-12-16T07:20:38.573Z,25.63
2017-12-16T07:23:06.264Z,30.77
2017-12-16T07:25:34.002Z,30.50
2017-12-16T07:28:01.647Z,31.13
2017-12-16T07:30:29.355Z,30.30
2017-12-16T07:32:57.060Z,28.50
2017-12-16T07:35:24.766Z,26.10
2017-12-16T07:37:52.392Z,28.60
2017-12-16T07:40:20.145Z,34.43
2017-12-16T07:42:47.842Z,29.13
2017-12-16T07:45:15.580Z,28.90
2017-12-16T07:47:43.199Z,27.40
2017-12-16T07:50:11.043Z,31.10
2017-12-16T07:52:38.728Z,26.20
2017-12-16T07:55:06.395Z,31.07
2017-12-16T07:57:34.021Z,30.97
2017-12-16T08:00:01.701Z,29.77
2017-12-16T08:02:29.364Z,29.17
2017-12-16T08:04:57.124Z,28.23
2017-12-16T08:07:24.841Z,25.00
2017-12-16T08:09:52.542Z,27.17
2017-12-16T08:12:20.177Z,27.03
2017-12-16T08:14:47.860Z,30.53
2017-12-16T08:17:15.558Z,29.57
2017-12-16T08:19:43.307Z,28.87
2017-12-16T08:22:11.013Z,30.57
2017-12-16T08:24:38.756Z,28.07
2017-12-16T08:27:06.440Z,24.17
2017-12-16T08:29:34.178Z,28.40
2017-12-16T08:32:01.882Z,32.80
2017-12-16T08:34:29.630Z,29.77
2017-12-16T08:36:57.255Z,27.57
2017-12-16T08:39:25.013Z,26.73
2017-12-16T08:41:52.766Z,25.10
2017-12-16T08:44:20.456Z,29.60
2017-12-16T08:46:48.121Z,27.70
2017-12-16T08:49:15.839Z,25.87
2017-12-16T08:51:43.551Z,28.00
2017-12-16T08:54:11.185Z,25.53
2017-12-16T08:56:38.993Z,25.33
2017-12-16T08:59:06.691Z,24.47
2017-12-16T09:01:34.451Z,23.40
2017-12-16T09:04:02.133Z,23.83
2017-12-16T09:06:29.867Z,23.63
2017-12-16T09:08:57.555Z,21.37
2017-12-16T09:11:25.248Z,26.60
2017-12-16T09:13:52.938Z,22.97
2017-12-16T09:16:20.681Z,20.93
2017-12-16T09:18:48.374Z,24.67
2017-12-16T09:21:16.090Z,26.40
2017-12-16T09:23:43.731Z,23.17
2017-12-16T09:26:11.407Z,19.90
2017-12-16T09:28:39.155Z,24.07
2017-12-16T09:31:06.884Z,21.30
2017-12-16T09:33:34.587Z,30.97
2017-12-16T09:36:02.344Z,40.93
2017-12-16T09:38:30.041Z,59.67
2017-12-16T09:40:57.777Z,62.53
2017-12-16T09:43:25.474Z,26.00
2017-12-16T09:45:53.154Z,26.07
2017-12-16T09:48:20.808Z,32.93
2017-12-16T09:50:48.613Z,24.17
2017-12-16T09:53:16.324Z,23.27
2017-12-16T09:55:44.011Z,22.47
2017-12-16T09:58:11.752Z,19.20
2017-12-16T10:00:39.578Z,16.93
2017-12-16T10:03:07.315Z,19.80
2017-12-16T10:05:35.068Z,19.17
2017-12-16T10:08:03.051Z,18.07
2017-12-16T10:10:30.749Z,20.17
2017-12-16T10:12:58.383Z,14.47
2017-12-16T10:15:26.128Z,16.07
2017-12-16T10:17:53.832Z,15.67
2017-12-16T10:20:21.584Z,12.20
2017-12-16T10:22:49.311Z,12.93
2017-12-16T10:25:16.985Z,15.13
2017-12-16T10:27:44.621Z,14.27
2017-12-16T10:30:12.250Z,16.40
2017-12-16T10:32:39.981Z,13.33
2017-12-16T10:35:07.606Z,15.20
2017-12-16T10:37:35.280Z,14.83
2017-12-16T10:40:02.925Z,16.30
2017-12-16T10:42:30.596Z,12.87
2017-12-16T10:44:58.223Z,17.63
2017-12-16T10:47:25.907Z,15.90
2017-12-16T10:49:53.543Z,15.70
2017-12-16T10:52:21.219Z,17.37
2017-12-16T10:54:48.841Z,15.63
2017-12-16T10:57:16.526Z,16.03
2017-12-16T10:59:44.166Z,15.43
2017-12-16T11:02:11.861Z,14.10
2017-12-16T11:04:39.491Z,17.23
2017-12-16T11:07:07.161Z,17.53
2017-12-16T11:09:34.807Z,16.47
2017-12-16T11:12:02.491Z,17.57
2017-12-16T11:14:30.111Z,19.77
2017-12-16T11:16:57.775Z,12.90
2017-12-16T11:19:25.392Z,15.63
2017-12-16T11:21:53.067Z,14.23
2017-12-16T11:24:20.688Z,16.40
2017-12-16T11:26:48.372Z,23.50
2017-12-16T11:29:16.006Z,22.10
2017-12-16T11:31:43.717Z,18.90
2017-12-16T11:34:11.343Z,20.27
2017-12-16T11:36:39.021Z,24.30
2017-12-16T11:39:06.658Z,25.70
2017-12-16T11:41:34.372Z,20.80
2017-12-16T11:44:02.003Z,17.20
2017-12-16T11:46:29.668Z,20.53
2017-12-16T11:48:57.312Z,17.23
2017-12-16T11:51:24.989Z,17.20
2017-12-16T11:53:52.609Z,18.73
2017-12-16T11:56:20.286Z,14.87
2017-12-16T11:58:47.913Z,16.33
2017-12-16T12:01:15.588Z,17.30
2017-12-16T12:03:43.274Z,19.93
2017-12-16T12:06:10.965Z,17.60
2017-12-16T12:08:38.615Z,14.20
2017-12-16T12:11:06.304Z,14.63
2017-12-16T12:13:33.935Z,13.63
2017-12-16T12:16:01.626Z,14.73
2017-12-16T12:18:29.263Z,17.27
2017-12-16T12:20:56.906Z,15.50
2017-12-16T12:23:24.565Z,18.17
2017-12-16T12:25:52.216Z,16.10
2017-12-16T12:28:19.893Z,14.73
2017-12-16T12:30:47.534Z,15.93
2017-12-16T12:33:15.224Z,14.77
2017-12-16T12:35:43.687Z,12.27
2017-12-16T12:38:11.380Z,12.50
2017-12-16T12:40:39.014Z,10.63
2017-12-16T12:43:06.689Z,12.63
2017-12-16T12:45:34.323Z,13.90
2017-12-16T12:48:02.001Z,13.00
2017-12-16T12:50:29.630Z,14.00
2017-12-16T12:52:57.288Z,13.50
2017-12-16T12:55:24.919Z,9.87
2017-12-16T12:57:52.609Z,11.83
2017-12-16T13:00:20.247Z,13.43
2017-12-16T13:02:47.910Z,10.93
2017-12-16T13:05:15.530Z,12.30
2017-12-16T13:07:43.201Z,10.20
2017-12-16T13:10:10.821Z,11.83
2017-12-16T13:12:38.523Z,14.53
2017-12-16T13:15:06.168Z,11.40
2017-12-16T13:17:33.838Z,13.40
2017-12-16T13:20:01.491Z,10.20
2017-12-16T13:22:29.165Z,12.47
2017-12-16T13:24:56.790Z,13.30
2017-12-16T13:27:24.492Z,12.07
2017-12-16T13:29:52.128Z,10.30
2017-12-16T13:32:19.801Z,8.10
2017-12-16T13:34:47.433Z,9.27
2017-12-16T13:37:15.117Z,8.90
2017-12-16T13:39:42.789Z,10.20
2017-12-16T13:42:10.468Z,15.30
2017-12-16T13:44:38.079Z,10.43
2017-12-16T13:47:05.775Z,9.60
2017-12-16T13:49:33.408Z,10.43
2017-12-16T13:52:01.071Z,10.17
2017-12-16T13:54:28.696Z,10.37
2017-12-16T13:56:56.388Z,10.77
2017-12-16T13:59:24.039Z,9.33
2017-12-16T14:01:51.727Z,9.30
2017-12-16T14:04:19.350Z,8.27
2017-12-16T14:06:47.027Z,8.60
2017-12-16T14:09:14.651Z,10.57
2017-12-16T14:11:42.275Z,9.03
2017-12-16T14:14:09.933Z,8.43
2017-12-16T14:16:37.578Z,7.67
2017-12-16T14:19:05.244Z,10.77
2017-12-16T14:21:32.888Z,12.50
2017-12-16T14:24:00.569Z,12.60
2017-12-16T14:26:28.187Z,9.13
2017-12-16T14:28:55.871Z,8.30
2017-12-16T14:31:23.500Z,8.93
2017-12-16T14:33:51.181Z,14.07
2017-12-16T14:36:19.593Z,20.20
2017-12-16T14:38:47.264Z,11.90
2017-12-16T14:41:14.909Z,9.93
2017-12-16T14:43:42.598Z,7.90
2017-12-16T14:46:10.228Z,7.50
2017-12-16T14:48:37.906Z,11.70
2017-12-16T14:51:05.542Z,13.07
2017-12-16T14:53:33.207Z,8.03
2017-12-16T14:56:00.837Z,17.60
2017-12-16T14:58:28.578Z,12.50
2017-12-16T15:00:56.243Z,19.33
2017-12-16T15:03:23.912Z,15.10
2017-12-16T15:05:51.561Z,6.73
2017-12-16T15:08:19.270Z,16.03
2017-12-16T15:10:46.944Z,12.70
2017-12-16T15:13:14.624Z,10.00
2017-12-16T15:15:42.293Z,19.23
2017-12-16T15:18:09.963Z,53.10
2017-12-16T15:20:37.652Z,57.37
2017-12-16T15:23:05.369Z,14.67
2017-12-16T15:25:32.997Z,7.93
2017-12-16T15:28:00.685Z,8.07
2017-12-16T15:30:28.313Z,8.53
2017-12-16T15:32:55.989Z,17.60
2017-12-16T15:35:23.617Z,12.20
2017-12-16T15:37:51.340Z,8.23
2017-12-16T15:40:19.001Z,13.57
2017-12-16T15:42:46.756Z,6.63
2017-12-16T15:45:14.419Z,11.40
2017-12-16T15:47:42.089Z,7.90
2017-12-16T15:50:09.738Z,11.07
2017-12-16T15:52:37.477Z,6.90
2017-12-16T15:55:05.124Z,8.77
2017-12-16T15:57:32.833Z,9.07
2017-12-16T16:00:00.501Z,9.03
2017-12-16T16:02:28.233Z,11.70
2017-12-16T16:04:55.910Z,9.80
2017-12-16T16:07:23.584Z,8.67
2017-12-16T16:09:51.276Z,7.13
2017-12-16T16:12:18.921Z,9.40
2017-12-16T16:14:46.706Z,6.83
2017-12-16T16:17:14.360Z,7.50
2017-12-16T16:19:42.049Z,8.83
2017-12-16T16:22:09.700Z,6.73
2017-12-16T16:24:37.424Z,6.80
2017-12-16T16:27:05.124Z,8.73
2017-12-16T16:29:32.805Z,4.97
2017-12-16T16:32:00.489Z,5.57
2017-12-16T16:34:28.174Z,6.37
2017-12-16T16:36:55.811Z,6.50
2017-12-16T16:39:23.499Z,7.20
2017-12-16T16:41:51.178Z,8.07
2017-12-16T16:44:18.887Z,7.77
2017-12-16T16:46:46.519Z,7.40
2017-12-16T16:49:14.188Z,6.90
2017-12-16T16:51:41.871Z,11.03
2017-12-16T16:54:09.570Z,6.27
2017-12-16T16:56:37.287Z,7.07
2017-12-16T16:59:04.984Z,6.30
2017-12-16T17:01:32.641Z,7.87
2017-12-16T17:04:00.344Z,10.20
2017-12-16T17:06:28.026Z,10.07
2017-12-16T17:08:55.706Z,8.10
2017-12-16T17:11:23.356Z,10.17
2017-12-16T17:13:51.032Z,10.70
2017-12-16T17:16:18.665Z,7.10
2017-12-16T17:18:46.342Z,11.13
2017-12-16T17:21:14.013Z,8.97
2017-12-16T17:23:41.717Z,9.30
2017-12-16T17:26:09.391Z,8.40
2017-12-16T17:28:37.118Z,8.03
2017-12-16T17:31:04.756Z,59.73
2017-12-16T17:33:32.494Z,94.47
2017-12-16T17:36:00.184Z,77.07
2017-12-16T17:38:27.907Z,66.70
2017-12-16T17:40:55.634Z,240.17
2017-12-16T17:43:23.434Z,88.90
2017-12-16T17:45:51.218Z,43.97
2017-12-16T17:48:19.003Z,20.40
2017-12-16T17:50:46.705Z,35.43
2017-12-16T17:53:14.446Z,21.43
2017-12-16T17:55:42.152Z,20.27
2017-12-16T17:58:09.796Z,19.50
2017-12-16T18:00:37.592Z,14.40
2017-12-16T18:03:05.327Z,15.47
2017-12-16T18:05:33.140Z,18.97
2017-12-16T18:08:00.836Z,12.40
2017-12-16T18:10:28.647Z,11.60
2017-12-16T18:12:56.364Z,9.27
2017-12-16T18:15:24.164Z,8.60
2017-12-16T18:17:51.920Z,12.43
2017-12-16T18:20:19.730Z,10.83
2017-12-16T18:22:47.445Z,10.90
2017-12-16T18:25:15.207Z,13.03
2017-12-16T18:27:42.970Z,9.73
2017-12-16T18:30:10.711Z,11.10
2017-12-16T18:32:38.410Z,8.97
2017-12-16T18:35:06.153Z,14.73
2017-12-16T18:37:33.863Z,11.47
2017-12-16T18:40:01.609Z,14.67
2017-12-16T18:42:29.388Z,11.60
2017-12-16T18:44:57.112Z,10.80
2017-12-16T18:47:24.857Z,12.93
2017-12-16T18:49:52.639Z,11.87
2017-12-16T18:52:20.337Z,14.43
2017-12-16T18:54:48.077Z,13.53
2017-12-16T18:57:15.724Z,11.77
2017-12-16T18:59:43.449Z,10.50
2017-12-16T19:02:11.136Z,11.40
2017-12-16T19:04:38.863Z,13.57
2017-12-16T19:07:06.618Z,13.47
2017-12-16T19:09:34.429Z,13.37
2017-12-16T19:12:02.089Z,11.33
2017-12-16T19:14:29.768Z,10.63
2017-12-16T19:16:57.514Z,12.83
2017-12-16T19:19:25.366Z,12.43
2017-12-16T19:21:53.136Z,10.93
2017-12-16T19:24:20.878Z,10.30
2017-12-16T19:26:48.623Z,10.10
2017-12-16T19:29:16.405Z,15.07
2017-12-16T19:31:44.147Z,12.17
2017-12-16T19:34:11.947Z,13.03
2017-12-16T19:36:39.718Z,11.73
2017-12-16T19:39:07.504Z,15.23
2017-12-16T19:41:35.249Z,20.83
2017-12-16T19:44:03.038Z,12.40
2017-12-16T19:46:30.817Z,10.30
2017-12-16T19:48:58.567Z,11.97
2017-12-16T19:51:26.371Z,10.43
2017-12-16T19:53:54.120Z,13.90
2017-12-16T19:56:21.920Z,13.70
2017-12-16T19:58:49.735Z,13.20
2017-12-16T20:01:17.534Z,15.53
2017-12-16T20:03:45.282Z,16.87
2017-12-16T20:06:13.075Z,13.07
2017-12-16T20:08:40.832Z,19.10
2017-12-16T20:11:08.620Z,14.37
2017-12-16T20:13:36.362Z,15.93
2017-12-16T20:16:04.198Z,19.67
2017-12-16T20:18:31.946Z,15.30
2017-12-16T20:20:59.662Z,14.07
2017-12-16T20:23:27.367Z,14.67
2017-12-16T20:25:55.113Z,18.97
2017-12-16T20:28:22.868Z,13.87
2017-12-16T20:30:50.652Z,21.90
2017-12-16T20:33:18.397Z,15.20
2017-12-16T20:35:46.216Z,14.57
2017-12-16T20:38:14.576Z,17.07
2017-12-16T20:40:42.367Z,11.87
2017-12-16T20:43:10.066Z,13.57
2017-12-16T20:45:37.880Z,16.80
2017-12-16T20:48:05.653Z,14.23
2017-12-16T20:50:33.435Z,13.93
2017-12-16T20:53:01.195Z,15.20
2017-12-16T20:55:28.982Z,13.47
2017-12-16T20:57:56.788Z,13.70
2017-12-16T21:00:24.588Z,12.77
2017-12-16T21:02:52.370Z,14.57
2017-12-16T21:05:20.153Z,12.60
2017-12-16T21:07:47.829Z,15.73
2017-12-16T21:10:15.614Z,15.20
2017-12-16T21:12:43.343Z,14.40
2017-12-16T21:15:11.137Z,11.03
2017-12-16T21:17:38.875Z,14.10
2017-12-16T21:20:06.693Z,13.70
2017-12-16T21:22:34.433Z,13.27
2017-12-16T21:25:02.227Z,12.10
2017-12-16T21:27:29.973Z,13.13
2017-12-16T21:29:57.702Z,15.33
2017-12-16T21:32:25.501Z,11.90
2017-12-16T21:34:53.253Z,17.43
2017-12-16T21:37:21.046Z,16.20
2017-12-16T21:39:48.784Z,13.43
2017-12-16T21:42:16.576Z,15.67
2017-12-16T21:44:44.312Z,15.07
2017-12-16T21:47:12.120Z,14.93
2017-12-16T21:49:39.817Z,15.70
2017-12-16T21:52:07.613Z,34.67
2017-12-16T21:54:35.368Z,53.03
2017-12-16T21:57:03.133Z,55.50
2017-12-16T21:59:30.908Z,39.63
2017-12-16T22:01:58.742Z,33.07
2017-12-16T22:04:26.489Z,28.60
2017-12-16T22:06:54.277Z,27.30
2017-12-16T22:09:22.028Z,18.30
2017-12-16T22:11:49.814Z,23.57
2017-12-16T22:14:17.578Z,19.80
2017-12-16T22:16:45.368Z,20.73
2017-12-16T22:19:13.084Z,16.93
2017-12-16T22:21:40.875Z,19.60
2017-12-16T22:24:08.553Z,14.80
2017-12-16T22:26:36.348Z,13.57
2017-12-16T22:29:04.023Z,14.50
2017-12-16T22:31:31.758Z,22.63
2017-12-16T22:33:59.484Z,10.50
2017-12-16T22:36:27.275Z,13.43
2017-12-16T22:38:54.945Z,11.77
2017-12-16T22:41:22.705Z,12.70
2017-12-16T22:43:50.472Z,12.50
2017-12-16T22:46:18.191Z,16.53
2017-12-16T22:48:45.880Z,12.27
2017-12-16T22:51:13.683Z,10.60
2017-12-16T22:53:41.429Z,9.60
2017-12-16T22:56:09.231Z,9.80
2017-12-16T22:58:37.038Z,31.07
2017-12-16T23:01:04.864Z,25.47
2017-12-16T23:03:32.612Z,13.30
2017-12-16T23:06:00.342Z,8.70
2017-12-16T23:08:28.090Z,14.93
2017-12-16T23:10:55.901Z,11.17
2017-12-16T23:13:23.646Z,9.37
2017-12-16T23:15:51.424Z,9.70
2017-12-16T23:18:19.103Z,10.00
2017-12-16T23:20:46.732Z,9.33
2017-12-16T23:23:14.502Z,8.50
2017-12-16T23:25:42.136Z,8.07
2017-12-16T23:28:09.856Z,8.37
2017-12-16T23:30:37.592Z,8.30
2017-12-16T23:33:05.350Z,10.53
2017-12-16T23:35:33.104Z,9.43
2017-12-16T23:38:00.897Z,10.20
2017-12-16T23:40:28.694Z,6.80
2017-12-16T23:42:56.406Z,8.20
2017-12-16T23:45:24.044Z,9.07
2017-12-16T23:47:51.758Z,8.53
2017-12-16T23:50:19.495Z,6.57
2017-12-16T23:52:47.217Z,8.23
2017-12-16T23:55:14.899Z,9.67
2017-12-16T23:57:42.721Z,8.70
